EGCNEGNJ

Guest
Details From EGCN - Doncaster-sheffield (ex Raf Finningley
To EGNJ - Humberside
Flight Number -
Tags Routegen Generated
Created
Modified
Stats Distance 29 nm / 54 km
Max Altitude 100 ft / 30 m
Waypoints 5
Social Downloads 12
Likes 0
Share

Download

Looking for another format? Having issues loading an existing format? Contact us
Advertisement - Login to hide

Notes

Departing runway 1 EGCN. Arriving runway 2 EGNJ.

Route

EGCN +53.53_+000.97 +53.52_+000.69 +53.50_+000.40 EGNJ

ID Type Via Altitude (ft/m) Position (lat/lon) Dist (leg/tot) Name
O EGCN APT - 0 / 0 53.46294 / -1.01075 - / 0 nm
+53.53_+000.97 LATLON - 100 / 30 53.53189 / -0.97382 4 / 4 nm
+53.52_+000.69 LATLON - 100 / 30 53.51513 / -0.68855 10 / 14 nm
+53.50_+000.40 LATLON - 100 / 30 53.49838 / -0.40327 10 / 24 nm
O EGNJ APT - 0 / 0 53.56533 / -0.35706 4 / 29 nm

Altitude Profile

Advertisement - Login to hide

EGCN

Details ICAO EGCN (DSA)
Name Doncaster Sheffield
Region United Kingdom
Timezone Europe/London (UTC+1.0)
Stats Elevation 55 ft / 17 m (AMSL)
Location 53.475300° -1.004130°
Runways 1
Magnetic Variation 0.567° W

METAR

EGCN 201020Z 04010KT 9999 BKN022 16/10 Q1024

Decode

TAF

TAF EGCN 200454Z 2006/2106 03009KT 9999 SCT018 PROB30 TEMPO 2006/2010 BKN008 PROB30 2018/2024 BKN012 TEMPO 2100/2106 8000 PROB30 TEMPO 2100/2106 3000 BR

Decode

Departure Runways

ID Width Length Bearing (true/mag) Surface Threshold Overrun Markings Lighting
02 197 ft / 60 m 9,488 ft / 2,892 m 17.63° / 18.19° ASPHALT 499 ft / 152 m 0 ft / 0 m PREC-APP EDGE THRESHOLD MALS REIL-OMNI
20 197 ft / 60 m 9,488 ft / 2,892 m 197.64° / 198.20° ASPHALT 505 ft / 154 m 0 ft / 0 m APP EDGE THRESHOLD MALS REIL-OMNI

EGNJ

Details ICAO EGNJ (HUY)
Name Humberside
Region United Kingdom
Timezone Europe/London (UTC+1.0)
Stats Elevation 121 ft / 37 m (AMSL)
Location 53.575500° -0.348395°
Runways 2
Magnetic Variation 0.338° W

METAR

EGNJ 201020Z AUTO 05011KT 9999 OVC020/// 16/12 Q1023

Decode

TAF

Not found

Destination Runways

ID Width Length Bearing (true/mag) Surface Threshold Overrun Markings Lighting
02 146 ft / 45 m 7,215 ft / 2,199 m 22.33° / 22.67° ASPHALT 0 ft / 0 m 0 ft / 0 m UK-PREC-APP CENTERLINE EDGE THRESHOLD CALVERT
08 59 ft / 18 m 3,240 ft / 988 m 82.37° / 82.71° ASPHALT 0 ft / 0 m 0 ft / 0 m VISUAL
20 146 ft / 45 m 7,215 ft / 2,199 m 202.34° / 202.68° ASPHALT 804 ft / 245 m 89 ft / 27 m UK-PREC-APP CENTERLINE EDGE THRESHOLD CALVERT
26 59 ft / 18 m 3,240 ft / 988 m 262.39° / 262.72° ASPHALT 948 ft / 289 m 0 ft / 0 m VISUAL

Approach Navaids

Runway Type Ident Frequency Range Bearing (true/mag) Slope Elevation
20 DME IHS 108.75 MHz 18 nm / 33 km - - 114 ft / 35 m (AMSL)
20 LOC-ILS IHS 108.75 MHz 18 nm / 33 km 202.34° / 202.68 ° - 121 ft / 37 m (AMSL)
20 GS IHS 108.75 MHz 10 nm / 19 km 202.34° / 202.68 ° 3.00° 121 ft / 37 m (AMSL)

Popular Alternatives